createdAt,value
2022-12-06T00:03:38.388Z,5.03
2022-12-06T00:08:58.349Z,5.60
2022-12-06T00:14:18.401Z,5.30
2022-12-06T00:19:38.711Z,5.43
2022-12-06T00:24:58.778Z,4.70
2022-12-06T00:30:19.059Z,5.40
2022-12-06T00:35:39.191Z,5.67
2022-12-06T00:40:59.407Z,4.70
2022-12-06T00:46:19.521Z,5.40
2022-12-06T00:51:39.657Z,5.23
2022-12-06T00:56:59.805Z,4.93
2022-12-06T01:02:19.958Z,4.73
2022-12-06T01:07:40.181Z,5.63
2022-12-06T01:13:00.333Z,5.30
2022-12-06T01:18:20.453Z,4.70
2022-12-06T01:23:40.597Z,5.23
2022-12-06T01:29:00.741Z,4.70
2022-12-06T01:34:20.853Z,5.67
2022-12-06T01:39:40.834Z,5.10
2022-12-06T01:45:00.947Z,6.30
2022-12-06T01:50:21.110Z,6.30
2022-12-06T01:55:41.187Z,5.90
2022-12-06T02:01:01.367Z,5.50
2022-12-06T02:06:21.469Z,5.67
2022-12-06T02:11:41.734Z,6.80
2022-12-06T02:17:01.920Z,5.93
2022-12-06T02:22:22.083Z,5.53
2022-12-06T02:27:42.251Z,5.20
2022-12-06T02:33:02.490Z,5.27
2022-12-06T02:38:22.561Z,5.60
2022-12-06T02:43:42.648Z,5.10
2022-12-06T02:49:02.813Z,4.80
2022-12-06T02:54:23.187Z,5.60
2022-12-06T02:59:43.282Z,5.37
2022-12-06T03:05:03.355Z,5.87
2022-12-06T03:10:23.489Z,5.63
2022-12-06T03:15:43.651Z,4.77
2022-12-06T03:21:03.710Z,5.63
2022-12-06T03:26:24.072Z,5.60
2022-12-06T03:31:44.144Z,5.37
2022-12-06T03:37:04.532Z,5.23
2022-12-06T03:42:24.644Z,5.40
2022-12-06T03:47:44.699Z,5.70
2022-12-06T03:53:04.818Z,5.53
2022-12-06T03:58:24.994Z,5.67
2022-12-06T04:03:45.150Z,6.00
2022-12-06T04:09:05.345Z,5.53
2022-12-06T04:14:25.501Z,4.80
2022-12-06T04:19:50.653Z,5.80
2022-12-06T04:25:11.893Z,5.70
2022-12-06T04:30:32.042Z,5.17
2022-12-06T04:35:52.234Z,5.80
2022-12-06T04:41:12.355Z,6.07
2022-12-06T04:46:32.555Z,6.07
2022-12-06T04:51:52.633Z,5.10
2022-12-06T04:57:12.717Z,5.30
2022-12-06T05:02:32.970Z,5.90
2022-12-06T05:07:53.139Z,6.47
2022-12-06T05:13:13.221Z,5.60
2022-12-06T05:18:33.192Z,5.90
2022-12-06T05:23:53.365Z,6.47
2022-12-06T05:29:13.459Z,5.43
2022-12-06T05:34:33.716Z,6.27
2022-12-06T05:39:53.850Z,5.17
2022-12-06T05:45:14.038Z,6.07
2022-12-06T05:50:34.145Z,6.00
2022-12-06T05:55:54.258Z,5.70
2022-12-06T06:01:14.346Z,5.77
2022-12-06T06:06:34.644Z,5.13
2022-12-06T06:11:54.702Z,5.87
2022-12-06T06:17:14.777Z,5.30
2022-12-06T06:22:34.892Z,5.87
2022-12-06T06:27:54.975Z,5.57
2022-12-06T06:33:15.074Z,5.20
2022-12-06T06:38:35.108Z,4.43
2022-12-06T06:43:55.209Z,5.03
2022-12-06T06:49:15.602Z,5.30
2022-12-06T06:54:35.766Z,5.40
2022-12-06T06:59:56.018Z,5.17
2022-12-06T07:05:16.041Z,5.17
2022-12-06T07:10:36.228Z,5.27
2022-12-06T07:15:56.374Z,4.80
2022-12-06T07:21:16.600Z,4.40
2022-12-06T07:26:36.831Z,4.77
2022-12-06T07:31:57.115Z,5.10
2022-12-06T07:37:17.271Z,5.10
2022-12-06T07:42:37.455Z,5.33
2022-12-06T07:47:57.557Z,4.53
2022-12-06T07:53:17.709Z,4.47
2022-12-06T07:58:45.476Z,5.07
2022-12-06T08:04:05.688Z,4.50
2022-12-06T08:09:25.901Z,4.77
2022-12-06T08:14:46.058Z,4.50
2022-12-06T08:20:06.203Z,4.50
2022-12-06T08:25:26.317Z,4.47
2022-12-06T08:30:46.607Z,4.90
2022-12-06T08:36:06.637Z,4.57
2022-12-06T08:41:26.714Z,4.73
2022-12-06T08:46:46.943Z,4.90
2022-12-06T08:52:06.997Z,4.50
2022-12-06T08:57:27.124Z,4.67
2022-12-06T09:02:47.382Z,4.60
2022-12-06T09:08:07.445Z,5.00
2022-12-06T09:13:27.474Z,4.50
2022-12-06T09:18:47.635Z,4.27
2022-12-06T09:24:07.782Z,4.47
2022-12-06T09:29:27.814Z,4.27
2022-12-06T09:34:47.929Z,4.53
2022-12-06T09:40:08.012Z,3.53
2022-12-06T09:45:28.113Z,4.10
2022-12-06T09:50:48.233Z,4.33
2022-12-06T09:56:08.508Z,4.70
2022-12-06T10:01:28.631Z,3.90
2022-12-06T10:06:48.908Z,3.57
2022-12-06T10:12:09.081Z,3.93
2022-12-06T10:17:29.409Z,4.17
2022-12-06T10:22:49.567Z,4.00
2022-12-06T10:28:09.805Z,4.40
2022-12-06T10:33:29.885Z,4.00
2022-12-06T10:38:50.225Z,3.70
2022-12-06T10:44:10.321Z,4.00
2022-12-06T10:49:30.601Z,3.67
2022-12-06T10:54:50.943Z,3.73
2022-12-06T11:00:15.264Z,3.50
2022-12-06T11:05:36.204Z,3.63
2022-12-06T11:10:56.198Z,3.87
2022-12-06T11:16:16.345Z,3.80
2022-12-06T11:21:36.498Z,3.57
2022-12-06T11:26:56.749Z,3.33
2022-12-06T11:32:16.856Z,3.50
2022-12-06T11:37:42.857Z,3.43
2022-12-06T11:43:04.024Z,3.40
2022-12-06T11:48:24.189Z,3.30
2022-12-06T11:53:44.280Z,3.57
2022-12-06T11:59:04.534Z,3.87
2022-12-06T12:04:24.568Z,3.30
2022-12-06T12:09:44.777Z,3.07
2022-12-06T12:15:04.940Z,3.30
2022-12-06T12:20:25.185Z,3.03
2022-12-06T12:25:45.397Z,2.70
2022-12-06T12:31:05.574Z,3.10
2022-12-06T12:36:25.803Z,2.63
2022-12-06T12:41:46.037Z,3.57
2022-12-06T12:47:06.271Z,2.73
2022-12-06T12:52:26.357Z,2.70
2022-12-06T12:57:46.451Z,3.00
2022-12-06T13:03:17.993Z,2.70
2022-12-06T13:08:46.823Z,3.00
2022-12-06T13:14:07.006Z,2.87
2022-12-06T13:19:27.224Z,2.80
2022-12-06T13:24:47.495Z,2.80
2022-12-06T13:30:07.581Z,2.70
2022-12-06T13:35:27.751Z,2.53
2022-12-06T13:40:47.800Z,3.20
2022-12-06T13:46:08.000Z,2.90
2022-12-06T13:51:28.131Z,2.90
2022-12-06T13:56:48.371Z,2.53
2022-12-06T14:02:08.560Z,2.67
2022-12-06T14:07:28.596Z,2.27
2022-12-06T14:12:48.744Z,2.87
2022-12-06T14:18:12.888Z,2.77
2022-12-06T14:23:37.247Z,2.80
2022-12-06T14:29:00.199Z,2.27
2022-12-06T14:34:20.483Z,2.57
2022-12-06T14:39:40.653Z,2.80
2022-12-06T14:45:02.735Z,2.20
2022-12-06T14:50:22.909Z,2.50
2022-12-06T14:55:43.107Z,3.03
2022-12-06T15:01:03.275Z,3.10
2022-12-06T15:06:23.526Z,2.40
2022-12-06T15:11:43.711Z,2.70
2022-12-06T15:17:03.863Z,2.30
2022-12-06T15:22:25.614Z,2.43
2022-12-06T15:27:45.570Z,2.53
2022-12-06T15:33:05.839Z,2.53
2022-12-06T15:38:26.078Z,2.67
2022-12-06T15:43:46.200Z,2.87
2022-12-06T15:49:07.721Z,3.27
2022-12-06T15:54:28.053Z,3.03
2022-12-06T15:59:48.083Z,2.60
2022-12-06T16:05:08.259Z,2.77
2022-12-06T16:10:42.843Z,3.03
2022-12-06T16:16:08.179Z,2.67
2022-12-06T16:21:28.243Z,2.87
2022-12-06T16:26:48.569Z,2.90
2022-12-06T16:32:08.819Z,3.07
2022-12-06T16:37:28.937Z,2.80
2022-12-06T16:42:49.181Z,2.53
2022-12-06T16:48:09.483Z,2.77
2022-12-06T16:53:29.250Z,2.70
2022-12-06T16:58:49.441Z,2.50
2022-12-06T17:04:09.618Z,2.90
2022-12-06T17:09:29.790Z,2.43
2022-12-06T17:14:50.421Z,3.10
2022-12-06T17:20:10.562Z,2.60
2022-12-06T17:25:30.678Z,2.37
2022-12-06T17:30:51.345Z,2.57
2022-12-06T17:36:11.382Z,2.47
2022-12-06T17:41:31.532Z,2.27
2022-12-06T17:46:51.650Z,2.80
2022-12-06T17:52:11.816Z,2.53
2022-12-06T17:57:31.930Z,2.37
2022-12-06T18:02:52.294Z,2.40
2022-12-06T18:08:12.401Z,2.43
2022-12-06T18:13:32.594Z,2.50
2022-12-06T18:18:52.801Z,2.03
2022-12-06T18:24:22.538Z,2.67
2022-12-06T18:29:43.000Z,2.70
2022-12-06T18:35:03.343Z,2.50
2022-12-06T18:40:23.330Z,2.30
2022-12-06T18:45:43.593Z,2.37
2022-12-06T18:51:03.769Z,2.17
2022-12-06T18:56:23.838Z,2.57
2022-12-06T19:01:44.152Z,2.13
2022-12-06T19:07:04.215Z,2.30
2022-12-06T19:12:24.378Z,2.30
2022-12-06T19:17:44.421Z,2.53
2022-12-06T19:23:04.734Z,2.13
2022-12-06T19:28:24.777Z,2.10
2022-12-06T19:33:45.049Z,1.90
2022-12-06T19:39:05.115Z,2.63
2022-12-06T19:44:25.498Z,2.50
2022-12-06T19:49:45.471Z,2.00
2022-12-06T19:55:05.721Z,2.23
2022-12-06T20:00:25.908Z,2.43
2022-12-06T20:05:46.228Z,1.97
2022-12-06T20:11:06.265Z,2.23
2022-12-06T20:16:26.580Z,2.17
2022-12-06T20:21:46.601Z,1.90
2022-12-06T20:27:06.932Z,2.27
2022-12-06T20:32:27.007Z,2.07
2022-12-06T20:37:47.268Z,1.97
2022-12-06T20:43:07.402Z,2.20
2022-12-06T20:48:27.604Z,1.90
2022-12-06T20:53:47.642Z,2.10
2022-12-06T20:59:07.961Z,2.53
2022-12-06T21:04:28.112Z,2.00
2022-12-06T21:09:48.484Z,2.30
2022-12-06T21:15:08.679Z,2.17
2022-12-06T21:20:28.805Z,2.07
2022-12-06T21:25:48.915Z,2.07
2022-12-06T21:31:09.325Z,2.30
2022-12-06T21:36:29.353Z,1.83
2022-12-06T21:41:49.702Z,1.60
2022-12-06T21:47:09.879Z,2.00
2022-12-06T21:52:30.079Z,1.93
2022-12-06T21:57:50.272Z,2.00
2022-12-06T22:03:10.556Z,1.87
2022-12-06T22:08:30.605Z,2.10
2022-12-06T22:13:50.720Z,1.97
2022-12-06T22:19:10.950Z,2.07
2022-12-06T22:24:31.044Z,2.03
2022-12-06T22:29:51.228Z,1.80
2022-12-06T22:35:11.376Z,2.20
2022-12-06T22:40:31.452Z,1.90
2022-12-06T22:45:51.462Z,1.93
2022-12-06T22:51:11.770Z,2.13
2022-12-06T22:56:31.995Z,1.50
2022-12-06T23:01:52.260Z,1.80
2022-12-06T23:07:12.450Z,1.80
2022-12-06T23:12:32.507Z,2.20
2022-12-06T23:17:52.688Z,1.83
2022-12-06T23:23:12.918Z,2.03
2022-12-06T23:28:33.049Z,1.87
2022-12-06T23:33:53.410Z,1.90
2022-12-06T23:39:13.731Z,2.20
2022-12-06T23:44:33.933Z,2.27
2022-12-06T23:49:54.088Z,1.63
2022-12-06T23:55:14.182Z,1.80
